Time;durP1;ratioP1;P1;durP2;ratioP2;P2;SDS_P1;SDS_P2;PMS_P1;PMS_P2;Temp;Humidity;BMP_temperature;BMP_pressure;BME280_temperature;BME280_humidity;BME280_pressure;Samples;Min_cycle;Max_cycle;Signal;HPM_P1;HPM_P2
2022/01/23 00:00:28;;;;;;;40.58;21.05;;;;;;;-5.24;72.56;100848.94;1756613;80;20987;-78
2022/01/23 00:02:50;;;;;;;43.00;21.42;;;;;;;-5.30;72.80;100850.16;1757110;81;20928;-78
2022/01/23 00:05:20;;;;;;;41.55;21.35;;;;;;;-5.31;72.91;100843.34;1758275;81;21804;-80
2022/01/23 00:07:50;;;;;;;43.78;22.58;;;;;;;-5.30;73.12;100851.43;1757900;81;20975;-79
2022/01/23 00:10:17;;;;;;;38.48;22.75;;;;;;;-5.32;73.12;100842.89;1758527;80;21010;-77
2022/01/23 00:12:52;;;;;;;43.65;22.32;;;;;;;-5.32;73.15;100848.44;1758666;80;20943;-78
2022/01/23 00:17:58;;;;;;;33.00;18.92;;;;;;;-5.33;73.24;100850.14;1759496;81;21940;-75
2022/01/23 00:20:25;;;;;;;39.23;20.40;;;;;;;-5.34;73.18;100856.08;1758201;80;20885;-76
2022/01/23 00:22:56;;;;;;;36.05;19.12;;;;;;;-5.34;73.17;100856.50;1758193;81;20975;-77
2022/01/23 00:30:51;;;;;;;;;;;;;;;-5.38;73.04;100852.20;1757627;81;21532;-79
2022/01/23 00:33:18;;;;;;;28.73;15.90;;;;;;;-5.36;72.96;100856.91;1750151;82;20169;-78
2022/01/23 00:35:46;;;;;;;30.43;18.80;;;;;;;-5.37;73.04;100855.22;1750069;82;20892;-77
2022/01/23 00:38:14;;;;;;;33.42;18.15;;;;;;;-5.38;73.11;100860.75;1750041;80;20932;-77
2022/01/23 00:40:42;;;;;;;39.18;19.25;;;;;;;-5.39;73.10;100855.19;1750574;82;20956;-78
2022/01/23 00:43:17;;;;;;;32.28;17.73;;;;;;;-5.37;73.20;100852.66;1750259;82;21912;-77
2022/01/23 00:45:52;;;;;;;32.85;19.50;;;;;;;-5.35;73.28;100847.98;1750404;82;20877;-78
2022/01/23 00:48:17;;;;;;;38.08;20.00;;;;;;;-5.35;73.03;100840.75;1749711;82;20908;-77
2022/01/23 00:50:45;;;;;;;36.68;18.25;;;;;;;-5.34;73.00;100839.46;1750137;82;20947;-78
2022/01/23 00:53:13;;;;;;;35.23;19.70;;;;;;;-5.34;72.88;100838.19;1750172;82;21496;-76
2022/01/23 00:55:43;;;;;;;31.30;18.20;;;;;;;-5.35;72.68;100836.92;1750217;82;21159;-78
2022/01/23 00:58:10;;;;;;;34.92;20.08;;;;;;;-5.36;72.86;100833.48;1750354;82;20897;-77
2022/01/23 01:00:39;;;;;;;33.85;18.95;;;;;;;-5.34;72.92;100837.34;1750176;82;21432;-76
2022/01/23 01:03:06;;;;;;;37.60;18.57;;;;;;;-5.34;72.77;100834.35;1750463;80;20908;-78
2022/01/23 01:05:34;;;;;;;33.15;17.00;;;;;;;-5.36;72.78;100832.63;1750245;80;20889;-77
2022/01/23 01:08:04;;;;;;;29.75;18.17;;;;;;;-5.38;72.67;100836.87;1750128;82;21842;-77
2022/01/23 01:10:39;;;;;;;32.40;18.23;;;;;;;-5.42;72.68;100838.56;1750115;82;20924;-77
2022/01/23 01:13:04;;;;;;;29.87;17.32;;;;;;;-5.45;72.85;100835.56;1749204;82;20999;-76
2022/01/23 01:15:54;;;;;;;30.57;18.92;;;;;;;-5.50;72.80;100839.75;1750215;80;20932;-77
2022/01/23 01:31:58;;;;;;;51.40;22.67;;;;;;;-5.62;71.95;100836.67;1750713;80;21430;-74
2022/01/23 01:34:34;;;;;;;44.03;21.07;;;;;;;-5.66;71.39;100843.87;1749369;82;21535;-77
2022/01/23 01:36:52;;;;;;;45.03;21.62;;;;;;;-5.71;70.99;100840.84;1747671;82;20905;-77
2022/01/23 01:39:27;;;;;;;38.53;18.85;;;;;;;-5.77;70.62;100840.78;1750135;82;20963;-76
2022/01/23 01:41:54;;;;;;;38.40;19.25;;;;;;;-5.83;70.64;100842.83;1750960;82;20944;-78
2022/01/23 01:44:22;;;;;;;39.50;20.20;;;;;;;-5.92;70.59;100844.87;1750171;80;21432;-76
2022/01/23 01:47:07;;;;;;;35.45;18.23;;;;;;;-5.98;70.65;100842.30;1750280;82;21519;-76
2022/01/23 01:49:36;;;;;;;34.75;18.52;;;;;;;-6.03;71.00;100838.82;1750011;82;20929;-78
2022/01/23 01:52:06;;;;;;;29.35;18.30;;;;;;;-6.09;71.53;100843.45;1753488;81;20924;-78
2022/01/23 01:54:34;;;;;;;36.28;19.98;;;;;;;-6.07;71.54;100847.28;1753168;82;20893;-78
2022/01/23 02:10:41;;;;;;;40.28;21.07;;;;;;;-6.31;70.81;100850.42;1752762;82;20905;-78
2022/01/23 02:13:13;;;;;;;43.52;23.47;;;;;;;-6.33;71.22;100858.47;1751199;82;21069;-79
2022/01/23 02:52:08;;;;;;;45.50;22.67;;;;;;;-6.82;70.65;100905.81;1696095;83;20971;-79
2022/01/23 02:56:49;;;;;;;47.98;23.45;;;;;;;-6.99;71.01;100918.70;1695995;83;21019;-77
2022/01/23 02:59:25;;;;;;;42.60;24.40;;;;;;;-7.06;71.13;100919.02;1695969;83;20999;-77
2022/01/23 03:02:05;;;;;;;49.67;24.72;;;;;;;-7.08;71.43;100924.51;1695976;84;21529;-77
2022/01/23 03:04:40;;;;;;;66.50;30.80;;;;;;;-7.06;71.55;100922.84;1686150;84;20953;-76
2022/01/23 03:07:35;;;;;;;80.70;34.53;;;;;;;-7.04;71.76;100926.70;1737316;82;22023;-77
2022/01/23 03:14:56;;;;;;;89.30;48.40;;;;;;;-6.89;71.70;100933.33;1738247;82;21008;-77
2022/01/23 03:33:29;;;;;;;49.10;23.50;;;;;;;-7.01;74.09;100961.15;1738389;82;21548;-78
2022/01/23 03:35:56;;;;;;;46.98;21.77;;;;;;;-7.01;74.47;100974.75;1670750;85;20909;-77
2022/01/23 03:38:23;;;;;;;42.40;22.17;;;;;;;-7.04;75.24;100967.06;1738277;81;20941;-78
2022/01/23 03:40:50;;;;;;;44.45;24.27;;;;;;;-7.04;75.90;100970.88;1738204;82;20964;-78
2022/01/23 03:51:39;;;;;;;56.18;30.02;;;;;;;-6.88;75.92;100965.63;1758355;80;21568;-77
2022/01/23 03:54:06;;;;;;;71.67;39.78;;;;;;;-6.88;75.46;100964.34;1758450;81;20920;-76
2022/01/23 03:56:33;;;;;;;80.87;39.30;;;;;;;-6.84;74.97;100968.67;1758898;81;20884;-77
2022/01/23 03:59:00;;;;;;;67.35;35.60;;;;;;;-6.82;74.54;100965.73;1758563;81;21027;-79
2022/01/23 04:01:27;;;;;;;63.58;34.27;;;;;;;-6.83;73.67;100974.20;1758298;81;20952;-78
2022/01/23 04:04:00;;;;;;;61.25;32.40;;;;;;;-6.85;73.42;100973.31;1758104;81;21126;-76
2022/01/23 04:06:24;;;;;;;58.80;29.85;;;;;;;-6.88;72.83;100977.09;1757901;81;20893;-77
2022/01/23 04:08:51;;;;;;;54.20;28.45;;;;;;;-6.96;72.50;100969.33;1758312;81;20881;-77
2022/01/23 04:11:18;;;;;;;73.60;35.83;;;;;;;-6.96;72.49;100976.09;1758144;81;20924;-77
2022/01/23 04:13:52;;;;;;;90.12;39.90;;;;;;;-6.95;72.35;100980.38;1758205;80;20896;-77
2022/01/23 04:16:39;;;;;;;93.82;39.45;;;;;;;-6.94;72.08;100982.08;1758060;80;21165;-77
2022/01/23 04:35:17;;;;;;;50.85;26.62;;;;;;;-7.00;71.48;100974.32;1758413;81;20931;-76
2022/01/23 04:45:51;;;;;;;50.03;24.37;;;;;;;-7.04;71.44;100982.35;1758463;80;21540;-78
2022/01/23 04:59:32;;;;;;;44.33;22.80;;;;;;;-7.06;71.04;100986.56;1758118;80;20868;-77
2022/01/23 05:04:36;;;;;;;51.10;25.95;;;;;;;-7.14;69.56;100977.48;1712143;81;21291;-78
2022/01/23 05:07:07;;;;;;;52.90;26.23;;;;;;;-7.19;69.26;100976.98;1758343;80;20927;-77
2022/01/23 05:09:37;;;;;;;59.07;28.77;;;;;;;-7.21;69.16;100979.91;1746319;81;21362;-77
2022/01/23 05:12:18;;;;;;;53.73;28.32;;;;;;;-7.23;69.24;100987.52;1756325;81;20991;-76
2022/01/23 05:14:47;;;;;;;49.20;25.80;;;;;;;-7.26;69.30;100982.80;1757881;81;20987;-77
2022/01/23 05:17:16;;;;;;;61.73;28.92;;;;;;;-7.31;69.38;100988.66;1757912;80;20947;-78
2022/01/23 05:19:43;;;;;;;52.40;27.02;;;;;;;-7.37;69.56;100988.97;1758032;80;20885;-77
2022/01/23 05:22:32;;;;;;;58.98;27.58;;;;;;;-7.40;69.64;100998.69;1758064;80;21993;-77
2022/01/23 05:25:02;;;;;;;57.55;29.70;;;;;;;-7.46;69.58;100999.83;1756541;80;20991;-77
2022/01/23 05:27:27;;;;;;;61.85;32.00;;;;;;;-7.47;69.98;101006.16;1756344;81;21522;-79
2022/01/23 05:29:54;;;;;;;60.28;30.95;;;;;;;-7.47;69.96;101015.07;1758016;81;20872;-78
2022/01/23 05:32:24;;;;;;;59.48;29.87;;;;;;;-7.49;69.90;101017.61;1758156;81;20940;-78
2022/01/23 05:34:51;;;;;;;67.62;30.30;;;;;;;-7.48;69.86;101018.04;1741252;81;21554;-77
2022/01/23 05:37:22;;;;;;;62.35;28.70;;;;;;;-7.45;69.77;101024.88;1757899;81;20881;-77
2022/01/23 05:39:49;;;;;;;68.42;31.02;;;;;;;-7.45;69.58;101022.33;1757952;81;20967;-78
2022/01/23 05:42:16;;;;;;;61.92;29.85;;;;;;;-7.48;69.49;101024.83;1758037;81;20936;-78
2022/01/23 05:44:43;;;;;;;58.48;30.12;;;;;;;-7.50;69.47;101028.61;1757765;81;20924;-76
2022/01/23 05:47:12;;;;;;;60.35;30.30;;;;;;;-7.50;69.38;101028.19;1758354;81;21100;-78
2022/01/23 05:49:55;;;;;;;69.50;29.95;;;;;;;-7.50;69.37;101024.79;1757892;81;20932;-77
2022/01/23 05:52:41;;;;;;;61.60;31.50;;;;;;;-7.53;69.36;101034.92;1757941;81;20983;-77
2022/01/23 05:55:25;;;;;;;;;;;;;;;-7.56;69.28;101034.45;1760334;81;21400;-78
2022/01/23 05:58:10;;;;;;;93.23;44.53;;;;;;;-7.62;69.13;101040.69;1757976;81;20130;-79
2022/01/23 06:00:39;;;;;;;117.08;48.48;;;;;;;-7.64;69.17;101040.21;1756490;81;21124;-77
2022/01/23 06:03:08;;;;;;;112.12;49.33;;;;;;;-7.64;69.26;101042.34;1757852;80;21503;-77
2022/01/23 06:05:37;;;;;;;125.20;55.08;;;;;;;-7.61;69.23;101050.03;1757318;81;21390;-77
2022/01/23 06:08:06;;;;;;;125.33;54.00;;;;;;;-7.59;69.16;101047.52;1757778;80;21342;-77
2022/01/23 06:10:46;;;;;;;110.80;51.75;;;;;;;-7.59;68.85;101049.65;1757995;81;21027;-77
2022/01/23 06:13:02;;;;;;;106.37;46.75;;;;;;;-7.60;68.75;101061.95;1756529;81;21067;-79
2022/01/23 06:15:31;;;;;;;100.62;45.78;;;;;;;-7.58;68.75;101062.84;1757878;81;20900;-78
2022/01/23 06:17:58;;;;;;;88.67;42.93;;;;;;;-7.55;68.79;101064.17;1757891;81;20880;-78
2022/01/23 06:20:44;;;;;;;82.10;37.88;;;;;;;-7.52;68.84;101067.19;1757866;81;20889;-77
2022/01/23 06:23:15;;;;;;;98.17;43.20;;;;;;;-7.45;68.94;101069.03;1749876;81;20920;-77
2022/01/23 06:26:02;;;;;;;98.33;46.23;;;;;;;-7.36;68.87;101067.97;1755708;81;22207;-77
2022/01/23 06:28:47;;;;;;;69.50;35.83;;;;;;;-7.34;68.49;101079.44;1758004;81;21358;-76
2022/01/23 06:31:14;;;;;;;61.00;31.27;;;;;;;-7.33;68.49;101078.63;1756435;80;20896;-75
2022/01/23 06:33:41;;;;;;;60.33;32.28;;;;;;;-7.31;68.77;101085.89;1758536;80;20908;-75
2022/01/23 06:36:09;;;;;;;59.95;32.15;;;;;;;-7.27;69.12;101085.09;1757961;80;20975;-77
2022/01/23 06:38:36;;;;;;;86.97;47.40;;;;;;;-7.22;69.29;101091.59;1758093;81;21483;-77
2022/01/23 06:41:03;;;;;;;118.05;77.70;;;;;;;-7.13;69.52;101098.14;1758045;80;21564;-78
2022/01/23 06:43:47;;;;;;;80.90;49.23;;;;;;;-7.04;69.64;101103.84;1757361;81;20967;-79
2022/01/23 06:46:16;;;;;;;87.33;58.33;;;;;;;-6.95;69.69;101107.41;1743815;81;20941;-78
2022/01/23 06:48:44;;;;;;;90.38;52.43;;;;;;;-6.88;69.72;101104.56;1744494;80;20881;-79
2022/01/23 06:51:11;;;;;;;91.20;47.93;;;;;;;-6.82;69.79;101108.52;1744515;82;21820;-78
2022/01/23 06:53:38;;;;;;;87.72;49.83;;;;;;;-6.73;69.89;101111.66;1744648;80;20956;-78
2022/01/23 06:56:05;;;;;;;88.27;50.48;;;;;;;-6.63;69.97;101107.14;1744608;81;20933;-76
2022/01/23 06:58:32;;;;;;;82.22;40.15;;;;;;;-6.54;70.04;101117.50;1744548;82;20952;-78
2022/01/23 07:01:00;;;;;;;75.37;37.25;;;;;;;-6.44;70.12;101122.80;1744591;82;20974;-77
2022/01/23 07:03:29;;;;;;;66.53;33.63;;;;;;;-6.37;70.38;101120.78;1743655;81;21169;-76
2022/01/23 07:05:57;;;;;;;74.32;37.33;;;;;;;-6.30;70.72;101123.45;1743698;81;20976;-77
2022/01/23 07:08:43;;;;;;;68.80;40.23;;;;;;;-6.24;70.96;101120.16;1744565;82;21427;-77
2022/01/23 07:11:11;;;;;;;62.98;36.77;;;;;;;-6.22;70.60;101127.82;1744022;81;21455;-77
2022/01/23 07:13:50;;;;;;;70.08;38.95;;;;;;;-6.22;70.63;101131.26;1743515;80;20972;-75
2022/01/23 07:16:19;;;;;;;63.95;36.48;;;;;;;-6.13;71.02;101137.78;1744044;81;21056;-77
2022/01/23 07:19:04;;;;;;;71.42;36.58;;;;;;;-6.01;71.18;101146.05;1744668;81;20940;-77
2022/01/23 07:21:33;;;;;;;71.77;39.03;;;;;;;-5.91;71.07;101140.66;1744388;81;21383;-77
2022/01/23 07:24:00;;;;;;;64.80;36.77;;;;;;;-5.81;71.12;101138.67;1744825;80;20888;-77
2022/01/23 07:26:28;;;;;;;70.32;37.85;;;;;;;-5.67;71.05;101143.98;1744812;81;20952;-76
2022/01/23 07:29:02;;;;;;;71.87;38.50;;;;;;;-5.56;71.00;101141.16;1744578;81;21566;-78
2022/01/23 07:31:44;;;;;;;79.85;41.92;;;;;;;-5.46;70.84;101144.30;1744504;81;20968;-78
2022/01/23 07:34:06;;;;;;;77.97;41.37;;;;;;;-5.31;70.83;101145.36;1743497;81;20992;-76
2022/01/23 07:36:35;;;;;;;78.07;43.80;;;;;;;-5.15;70.72;101147.27;1744462;82;20846;-77
2022/01/23 07:39:04;;;;;;;78.10;41.92;;;;;;;-5.02;70.52;101145.73;1744478;80;20912;-76
2022/01/23 07:41:42;;;;;;;85.00;45.20;;;;;;;-4.93;70.15;101148.39;1744795;81;21532;-76
2022/01/23 07:44:14;;;;;;;80.85;45.25;;;;;;;-4.84;70.06;101155.32;1744082;81;20869;-77
2022/01/23 07:46:42;;;;;;;80.70;44.83;;;;;;;-4.72;69.95;101162.27;1748382;81;20837;-77
2022/01/23 07:49:28;;;;;;;80.53;45.17;;;;;;;-4.55;69.88;101167.16;1758349;81;20967;-78
2022/01/23 07:52:02;;;;;;;75.70;47.30;;;;;;;-4.43;69.31;101177.94;1757823;81;21026;-79
2022/01/23 07:54:38;;;;;;;88.30;48.00;;;;;;;-4.42;68.99;101174.55;1667198;85;21234;-77
2022/01/23 07:57:24;;;;;;;91.75;49.67;;;;;;;-4.39;69.02;101177.98;1666908;85;20943;-77
2022/01/23 08:00:11;;;;;;;83.17;48.52;;;;;;;-4.30;69.04;101177.22;1667134;84;20924;-80
2022/01/23 08:02:43;;;;;;;87.08;46.75;;;;;;;-4.22;69.05;101169.63;1667539;85;21485;-78
2022/01/23 08:05:29;;;;;;;90.95;49.90;;;;;;;-4.08;69.34;101171.88;1667309;85;21019;-82
2022/01/23 08:08:14;;;;;;;86.57;48.00;;;;;;;-3.85;69.55;101174.62;1667269;85;21166;-80
2022/01/23 08:10:48;;;;;;;91.72;52.48;;;;;;;-3.61;68.95;101185.92;1655948;84;21572;-80
2022/01/23 08:13:19;;;;;;;89.67;48.70;;;;;;;-3.43;68.74;101187.75;1667230;85;20955;-82
2022/01/23 08:15:46;;;;;;;77.65;43.68;;;;;;;-3.26;68.43;101195.56;1667272;85;20891;-80
2022/01/23 08:18:15;;;;;;;73.78;42.48;;;;;;;-3.14;68.08;101193.90;1667487;85;20895;-78
2022/01/23 08:20:41;;;;;;;76.40;44.63;;;;;;;-3.02;67.90;101205.95;1667452;86;21409;-82
2022/01/23 08:23:08;;;;;;;79.20;42.23;;;;;;;-2.94;67.57;101201.70;1667439;86;21568;-80
2022/01/23 08:25:35;;;;;;;70.57;41.55;;;;;;;-2.83;67.63;101204.75;1667148;84;21451;-81
2022/01/23 08:28:02;;;;;;;72.47;40.60;;;;;;;-2.71;67.49;101197.97;1667386;85;20959;-79
2022/01/23 08:30:29;;;;;;;69.70;38.53;;;;;;;-2.59;67.11;101198.43;1667355;86;21007;-81
2022/01/23 08:32:56;;;;;;;66.62;39.38;;;;;;;-2.57;66.59;101193.31;1754872;80;21115;-79
2022/01/23 08:35:26;;;;;;;70.03;40.92;;;;;;;-2.58;66.54;101194.14;1758446;80;20920;-79
2022/01/23 08:37:53;;;;;;;61.85;36.38;;;;;;;-2.56;66.41;101191.16;1759077;81;20849;-82
2022/01/23 08:40:45;;;;;;;63.35;38.98;;;;;;;-2.53;66.37;101193.32;1760484;81;20935;-82
2022/01/23 08:42:52;;;;;;;57.65;35.92;;;;;;;-2.53;66.44;101192.03;1758172;80;20849;-81
2022/01/23 08:45:19;;;;;;;57.93;36.10;;;;;;;-2.49;66.41;101198.02;1758554;81;21526;-83
2022/01/23 08:47:48;;;;;;;59.55;35.28;;;;;;;-2.54;66.14;101201.86;1758685;81;20916;-82
2022/01/23 08:50:15;;;;;;;65.90;38.08;;;;;;;-2.61;66.12;101200.13;1758160;81;20916;-83
2022/01/23 08:52:45;;;;;;;69.35;39.70;;;;;;;-2.72;66.46;101209.50;1758426;81;21437;-82
2022/01/23 08:55:12;;;;;;;60.40;36.28;;;;;;;-2.81;66.68;101211.60;1758255;81;21403;-82
2022/01/23 08:57:39;;;;;;;59.33;37.25;;;;;;;-2.87;67.00;101214.56;1759619;81;21146;-81
2022/01/23 09:00:09;;;;;;;63.83;39.15;;;;;;;-2.88;67.17;101223.98;1758579;80;20853;-83
2022/01/23 09:02:37;;;;;;;67.80;40.23;;;;;;;-2.80;67.35;101220.16;1757185;80;20884;-81
2022/01/23 09:05:05;;;;;;;70.10;42.05;;;;;;;-2.69;67.44;101217.23;1758357;81;21022;-81
2022/01/23 09:07:32;;;;;;;63.42;39.18;;;;;;;-2.59;67.37;101220.25;1758216;81;20877;-83
2022/01/23 09:10:03;;;;;;;65.67;40.03;;;;;;;-2.49;67.19;101215.99;1758093;81;21539;-81
2022/01/23 09:15:09;;;;;;;64.22;40.55;;;;;;;-2.43;66.92;101217.73;1758031;80;20896;-83
2022/01/23 09:17:36;;;;;;;64.53;40.10;;;;;;;-2.35;67.17;101219.48;1758427;80;20904;-81
2022/01/23 09:20:05;;;;;;;66.67;40.85;;;;;;;-2.25;66.81;101212.64;1757961;81;20912;-83
2022/01/23 09:22:32;;;;;;;70.03;39.78;;;;;;;-2.23;66.74;101212.66;1757920;81;21164;-81
2022/01/23 09:25:00;;;;;;;63.98;39.60;;;;;;;-2.19;66.67;101221.66;1757718;81;20971;-77
2022/01/23 09:27:28;;;;;;;68.37;42.43;;;;;;;-2.12;66.64;101225.09;1758237;80;21015;-77
2022/01/23 09:30:05;;;;;;;67.95;40.83;;;;;;;-2.03;66.36;101229.39;1757945;81;21302;-80
2022/01/23 09:32:28;;;;;;;66.28;38.92;;;;;;;-1.97;66.25;101226.84;1757153;81;20912;-79
2022/01/23 09:34:55;;;;;;;65.87;39.65;;;;;;;-1.90;66.01;101234.98;1758037;80;21979;-80
2022/01/23 09:37:25;;;;;;;69.75;42.58;;;;;;;-1.81;66.07;101233.70;1757837;81;20884;-80
2022/01/23 09:39:52;;;;;;;69.47;41.00;;;;;;;-1.74;65.55;101248.27;1757908;80;20920;-80
2022/01/23 09:42:28;;;;;;;64.72;41.45;;;;;;;-1.72;65.44;101251.70;1757961;80;20990;-80
2022/01/23 09:45:03;;;;;;;70.55;40.67;;;;;;;-1.67;65.42;101257.72;1757535;81;20885;-81
2022/01/23 09:47:31;;;;;;;77.67;42.95;;;;;;;-1.57;65.28;101260.30;1757777;81;21152;-80
2022/01/23 09:50:00;;;;;;;72.65;43.63;;;;;;;-1.48;65.18;101255.14;1757845;80;20955;-80
2022/01/23 09:52:34;;;;;;;76.92;44.85;;;;;;;-1.37;64.93;101257.28;1757883;81;20841;-79
2022/01/23 09:54:57;;;;;;;70.87;42.38;;;;;;;-1.34;64.73;101264.98;1756373;81;20853;-80
2022/01/23 09:57:28;;;;;;;72.17;45.38;;;;;;;-1.35;64.52;101267.14;1757891;81;21385;-80
2022/01/23 09:59:55;;;;;;;82.05;48.30;;;;;;;-1.37;64.44;101267.57;1757919;81;21965;-81
2022/01/23 10:02:28;;;;;;;76.33;48.10;;;;;;;-1.42;64.26;101268.02;1758404;80;20932;-79
2022/01/23 10:04:52;;;;;;;80.17;46.75;;;;;;;-1.47;64.28;101260.30;1757094;81;20940;-82
2022/01/23 10:07:20;;;;;;;84.32;45.90;;;;;;;-1.56;64.38;101256.41;1758207;81;20920;-80
2022/01/23 10:09:54;;;;;;;87.27;47.90;;;;;;;-1.61;64.63;101254.28;1758137;81;21441;-80
2022/01/23 10:12:19;;;;;;;77.80;45.95;;;;;;;-1.63;64.69;101255.14;1757694;81;21134;-80
2022/01/23 10:14:46;;;;;;;74.12;43.33;;;;;;;-1.63;64.64;101265.42;1757883;80;20908;-81
2022/01/23 10:17:13;;;;;;;80.85;46.45;;;;;;;-1.63;64.76;101257.27;1758291;80;20873;-79
2022/01/23 10:19:40;;;;;;;78.05;45.65;;;;;;;-1.62;64.85;101261.98;1757847;81;20980;-80
2022/01/23 10:22:09;;;;;;;73.07;44.83;;;;;;;-1.61;64.74;101252.99;1757868;81;20948;-80
2022/01/23 10:24:36;;;;;;;72.87;43.55;;;;;;;-1.63;64.70;101248.27;1741061;81;21091;-81
2022/01/23 10:27:03;;;;;;;69.65;43.13;;;;;;;-1.67;64.87;101247.44;1758732;81;21411;-80
2022/01/23 10:29:34;;;;;;;69.32;42.88;;;;;;;-1.68;64.88;101247.42;1757896;81;20912;-81
2022/01/23 10:32:20;;;;;;;63.08;38.30;;;;;;;-1.73;65.05;101249.14;1758150;81;20917;-80
2022/01/23 10:35:02;;;;;;;65.40;37.60;;;;;;;-1.77;64.94;101245.70;1757536;81;21366;-80
2022/01/23 10:37:33;;;;;;;71.22;40.75;;;;;;;-1.83;65.08;101252.55;1757874;81;21963;-80
2022/01/23 10:40:09;;;;;;;65.10;39.45;;;;;;;-1.86;65.23;101257.70;1757912;80;20924;-78
2022/01/23 10:51:27;;;;;;;68.65;39.83;;;;;;;-1.55;65.23;101258.58;1744608;81;21146;-80
2022/01/23 10:54:02;;;;;;;66.62;37.73;;;;;;;-1.44;65.31;101269.72;1744914;82;20869;-81
2022/01/23 10:56:34;;;;;;;59.95;34.20;;;;;;;-1.39;64.95;101268.44;1744562;82;21039;-80
2022/01/23 10:59:10;;;;;;;64.53;36.80;;;;;;;-1.36;64.93;101271.84;1744945;82;20889;-80
2022/01/23 11:01:39;;;;;;;71.72;41.45;;;;;;;-1.36;65.05;101265.84;1744497;82;20896;-79
2022/01/23 11:04:13;;;;;;;79.07;39.63;;;;;;;-1.42;64.92;101273.56;1745134;80;21361;-80
2022/01/23 11:06:57;;;;;;;72.22;39.90;;;;;;;-1.50;65.14;101267.99;1744436;82;21390;-81
2022/01/23 11:09:36;;;;;;;77.72;44.08;;;;;;;-1.57;65.23;101271.42;1745254;82;20905;-82
2022/01/23 11:12:14;;;;;;;75.28;42.03;;;;;;;-1.70;65.43;101275.70;1745270;82;21436;-82
2022/01/23 11:17:26;;;;;;;66.33;39.80;;;;;;;-1.80;65.93;101280.82;1744917;81;21976;-78
2022/01/23 11:19:58;;;;;;;64.10;36.75;;;;;;;-1.81;66.19;101279.12;1744619;82;20881;-79
2022/01/23 11:22:31;;;;;;;63.85;36.70;;;;;;;-1.82;66.33;101279.95;1744518;82;21355;-78
2022/01/23 11:25:02;;;;;;;62.00;35.25;;;;;;;-1.86;66.48;101281.69;1744728;82;21470;-79
2022/01/23 11:27:37;;;;;;;62.53;35.03;;;;;;;-1.86;66.68;101286.83;1744280;81;20937;-79
2022/01/23 11:30:12;;;;;;;55.73;34.33;;;;;;;-1.86;66.74;101297.11;1744748;82;21181;-79
2022/01/23 11:32:41;;;;;;;54.60;33.40;;;;;;;-1.83;66.70;101296.25;1744590;81;21414;-79
2022/01/23 11:35:15;;;;;;;53.45;32.30;;;;;;;-1.83;66.66;101298.39;1744337;81;21545;-79
2022/01/23 11:37:49;;;;;;;55.05;34.18;;;;;;;-1.79;66.63;101312.12;1744322;82;20940;-79
2022/01/23 11:54:01;;;;;;;52.65;28.90;;;;;;;-1.71;66.34;101325.85;1744513;80;20849;-79
2022/01/23 11:56:39;;;;;;;50.90;29.37;;;;;;;-1.69;66.47;101326.69;1744636;81;21160;-80
2022/01/23 11:59:29;;;;;;;43.10;26.87;;;;;;;-1.65;66.55;101325.84;1702030;83;20952;-85
2022/01/23 12:02:15;;;;;;;40.28;25.72;;;;;;;-1.62;66.46;101327.16;1678958;84;20869;-80
2022/01/23 12:05:17;;;;;;;40.80;26.02;;;;;;;-1.59;66.41;101328.86;1702020;83;20972;-81
2022/01/23 12:07:46;;;;;;;46.58;27.27;;;;;;;-1.59;66.47;101329.72;1702260;83;21094;-81
2022/01/23 12:10:28;;;;;;;46.60;27.65;;;;;;;-1.56;66.56;101333.56;1701088;83;20905;-80
2022/01/23 12:13:03;;;;;;;46.18;26.82;;;;;;;-1.51;66.68;101337.46;1701531;83;20968;-81
2022/01/23 12:18:28;;;;;;;39.75;24.77;;;;;;;-1.40;66.54;101341.30;1703142;83;21032;-80
2022/01/23 12:20:52;;;;;;;42.80;25.72;;;;;;;-1.40;66.35;101340.90;1701712;83;21113;-80
2022/01/23 12:23:19;;;;;;;39.00;26.10;;;;;;;-1.44;66.37;101343.47;1702440;84;21533;-79
2022/01/23 12:25:52;;;;;;;36.08;23.57;;;;;;;-1.45;66.56;101345.16;1702320;83;21430;-80
2022/01/23 12:28:33;;;;;;;42.00;25.37;;;;;;;-1.46;66.60;101344.74;1703249;83;21498;-79
2022/01/23 12:31:26;;;;;;;46.02;26.93;;;;;;;-1.50;66.78;101341.73;1702846;83;21011;-78
2022/01/23 12:34:03;;;;;;;46.37;27.48;;;;;;;-1.48;66.95;101341.31;1725801;82;21528;-81
2022/01/23 12:36:37;;;;;;;42.03;26.15;;;;;;;-1.48;67.11;101344.73;1732775;82;20960;-80
2022/01/23 12:39:13;;;;;;;43.20;26.17;;;;;;;-1.45;67.17;101345.16;1744021;82;20944;-79
2022/01/23 12:41:54;;;;;;;45.90;27.85;;;;;;;-1.41;67.14;101346.03;1743645;82;21011;-79
2022/01/23 12:44:29;;;;;;;39.65;26.45;;;;;;;-1.36;67.14;101348.17;1744255;82;20972;-78
2022/01/23 12:46:58;;;;;;;46.40;26.87;;;;;;;-1.31;67.07;101352.48;1745527;81;20881;-77
2022/01/23 12:49:32;;;;;;;48.52;26.77;;;;;;;-1.29;66.82;101352.05;1757667;80;21148;-79
2022/01/23 12:52:13;;;;;;;43.80;25.60;;;;;;;-1.25;66.95;101355.47;1757935;81;20951;-80
2022/01/23 12:54:58;;;;;;;46.90;27.00;;;;;;;-1.21;66.82;101361.48;1757721;81;21405;-79
2022/01/23 12:57:42;;;;;;;44.15;27.42;;;;;;;-1.18;66.85;101354.60;1757839;81;20889;-80
2022/01/23 13:00:17;;;;;;;42.17;25.62;;;;;;;-1.14;66.84;101355.04;1756644;80;20876;-80
2022/01/23 13:02:46;;;;;;;43.63;27.10;;;;;;;-1.07;66.85;101359.35;1759034;81;21740;-80
2022/01/23 13:05:14;;;;;;;42.48;25.52;;;;;;;-1.01;66.61;101356.34;1758546;80;20936;-78
2022/01/23 13:07:49;;;;;;;38.20;23.42;;;;;;;-0.99;66.61;101356.76;1758084;81;20936;-78
2022/01/23 13:12:52;;;;;;;39.80;22.45;;;;;;;-1.01;66.57;101360.20;1758240;80;20912;-77
2022/01/23 13:31:51;;;;;;;25.80;13.90;;;;;;;-1.31;65.19;101370.48;1758213;81;20853;-79
2022/01/23 13:34:48;;;;;;;20.37;14.13;;;;;;;-1.31;65.03;101378.20;1757862;81;20969;-79
2022/01/23 13:37:21;;;;;;;20.15;12.30;;;;;;;-1.34;64.84;101376.89;1757688;80;21430;-79
2022/01/23 13:40:00;;;;;;;;;;;;;;;-1.37;64.73;101382.05;1760669;80;20905;-78
2022/01/23 13:51:35;;;;;;;27.70;15.00;;;;;;;-1.56;64.58;101385.00;1744504;82;20889;-78
2022/01/23 14:02:26;;;;;;;34.13;16.05;;;;;;;-1.58;64.73;101397.02;1744593;82;20940;-82
2022/01/23 14:05:13;;;;;;;29.40;16.27;;;;;;;-1.60;64.62;101393.59;1744199;81;20929;-86
2022/01/23 14:07:44;;;;;;;29.20;17.90;;;;;;;-1.65;64.76;101398.27;1744820;81;20921;-79
2022/01/23 14:10:27;;;;;;;32.48;18.45;;;;;;;-1.67;64.75;101402.12;1744725;81;21955;-86
2022/01/23 14:13:11;;;;;;;26.82;16.57;;;;;;;-1.69;64.76;101396.11;1746524;81;20881;-87
2022/01/23 14:15:50;;;;;;;26.93;16.33;;;;;;;-1.67;64.90;101396.97;1745132;82;21019;-88
2022/01/23 14:18:22;;;;;;;28.85;17.12;;;;;;;-1.72;65.01;101398.25;1745761;82;20944;-90
2022/01/23 14:21:12;;;;;;;34.85;17.15;;;;;;;-1.76;65.20;101393.95;1736035;82;20921;-91
2022/01/23 14:23:55;;;;;;;31.25;18.23;;;;;;;-1.74;65.32;101397.81;1745537;80;21615;-92
2022/01/23 14:26:22;;;;;;;32.05;17.65;;;;;;;-1.75;65.32;101399.97;1747897;82;20945;-89
2022/01/23 14:28:51;;;;;;;28.23;17.25;;;;;;;-1.77;65.31;101406.81;1747590;81;21047;-90
2022/01/23 14:31:21;;;;;;;33.65;17.67;;;;;;;-1.80;65.60;101401.24;1746522;81;20865;-89
2022/01/23 14:33:52;;;;;;;29.12;18.20;;;;;;;-1.85;65.73;101401.62;1747847;82;20897;-89
2022/01/23 14:36:25;;;;;;;29.92;16.75;;;;;;;-1.88;65.87;101401.20;1737730;82;21055;-87
2022/01/23 14:39:17;;;;;;;27.98;16.77;;;;;;;-1.89;65.95;101403.75;1745805;81;20885;-88
2022/01/23 14:41:49;;;;;;;25.05;14.68;;;;;;;-1.91;66.08;101410.20;1741177;81;20897;-89
2022/01/23 14:44:27;;;;;;;28.10;16.15;;;;;;;-1.95;66.20;101410.17;1745944;81;20882;-89
2022/01/23 14:46:59;;;;;;;30.02;15.45;;;;;;;-1.98;66.39;101416.57;1745668;81;21328;-88
2022/01/23 14:49:29;;;;;;;29.02;16.45;;;;;;;-2.01;66.70;101421.70;1745592;81;21377;-90
2022/01/23 14:51:57;;;;;;;27.98;15.13;;;;;;;-2.01;66.84;101419.98;1746074;82;20912;-88
2022/01/23 14:54:29;;;;;;;21.37;13.95;;;;;;;-2.01;66.87;101414.84;1746314;82;20885;-87
2022/01/23 14:57:09;;;;;;;31.65;16.85;;;;;;;-2.00;66.98;101420.84;1745762;81;20897;-89
2022/01/23 15:02:32;;;;;;;26.27;14.60;;;;;;;-1.99;67.17;101425.14;1672480;84;20932;-88